sensor_id;sensor_type;location;lat;lon;timestamp;temperature;humidity
39779;DHT22;25454;49.878;8.618;2023-05-09T00:02:24;16.10;99.90
39779;DHT22;25454;49.878;8.618;2023-05-09T00:07:25;16.20;99.90
39779;DHT22;25454;49.878;8.618;2023-05-09T00:12:26;16.20;99.90
39779;DHT22;25454;49.878;8.618;2023-05-09T00:17:27;16.20;99.90
39779;DHT22;25454;49.878;8.618;2023-05-09T00:22:28;16.30;99.90
39779;DHT22;25454;49.878;8.618;2023-05-09T00:27:29;16.30;99.90
39779;DHT22;25454;49.878;8.618;2023-05-09T00:32:31;16.20;99.90
39779;DHT22;25454;49.878;8.618;2023-05-09T00:37:32;16.20;99.90
39779;DHT22;25454;49.878;8.618;2023-05-09T00:42:32;16.20;99.90
39779;DHT22;25454;49.878;8.618;2023-05-09T00:47:33;16.10;99.90
39779;DHT22;25454;49.878;8.618;2023-05-09T00:52:35;16.10;99.90
39779;DHT22;25454;49.878;8.618;2023-05-09T00:57:36;16.10;99.90
39779;DHT22;25454;49.878;8.618;2023-05-09T01:02:36;16.10;99.90
39779;DHT22;25454;49.878;8.618;2023-05-09T01:07:42;16.10;99.90
39779;DHT22;25454;49.878;8.618;2023-05-09T01:33:58;16.00;99.90
39779;DHT22;25454;49.878;8.618;2023-05-09T01:39:01;16.00;99.90
39779;DHT22;25454;49.878;8.618;2023-05-09T01:44:05;15.90;99.90
39779;DHT22;25454;49.878;8.618;2023-05-09T01:49:07;16.00;99.90
39779;DHT22;25454;49.878;8.618;2023-05-09T01:54:09;15.90;99.90
39779;DHT22;25454;49.878;8.618;2023-05-09T01:59:11;15.80;99.90
39779;DHT22;25454;49.878;8.618;2023-05-09T02:04:16;15.60;99.90
39779;DHT22;25454;49.878;8.618;2023-05-09T02:09:18;15.50;99.90
39779;DHT22;25454;49.878;8.618;2023-05-09T02:14:19;15.30;99.90
39779;DHT22;25454;49.878;8.618;2023-05-09T02:19:20;15.20;99.90
39779;DHT22;25454;49.878;8.618;2023-05-09T02:24:20;15.10;99.90
39779;DHT22;25454;49.878;8.618;2023-05-09T02:29:25;15.00;99.90
39779;DHT22;25454;49.878;8.618;2023-05-09T02:34:29;15.00;99.90
39779;DHT22;25454;49.878;8.618;2023-05-09T02:39:30;15.00;99.90
39779;DHT22;25454;49.878;8.618;2023-05-09T02:44:34;15.00;99.90
39779;DHT22;25454;49.878;8.618;2023-05-09T02:49:35;14.90;99.90
39779;DHT22;25454;49.878;8.618;2023-05-09T02:54:36;14.80;99.90
39779;DHT22;25454;49.878;8.618;2023-05-09T02:59:37;14.70;99.90
39779;DHT22;25454;49.878;8.618;2023-05-09T03:04:37;14.60;99.90
39779;DHT22;25454;49.878;8.618;2023-05-09T03:09:38;14.60;99.90
39779;DHT22;25454;49.878;8.618;2023-05-09T03:14:38;14.50;99.90
39779;DHT22;25454;49.878;8.618;2023-05-09T03:19:42;14.40;99.90
39779;DHT22;25454;49.878;8.618;2023-05-09T03:24:42;14.40;99.90
39779;DHT22;25454;49.878;8.618;2023-05-09T03:29:43;14.40;99.90
39779;DHT22;25454;49.878;8.618;2023-05-09T03:34:43;14.30;99.90
39779;DHT22;25454;49.878;8.618;2023-05-09T03:39:44;14.30;99.90
39779;DHT22;25454;49.878;8.618;2023-05-09T03:44:45;14.30;99.90
39779;DHT22;25454;49.878;8.618;2023-05-09T03:49:45;14.20;99.90
39779;DHT22;25454;49.878;8.618;2023-05-09T03:54:46;14.20;99.90
39779;DHT22;25454;49.878;8.618;2023-05-09T03:59:46;14.30;99.90
39779;DHT22;25454;49.878;8.618;2023-05-09T04:04:47;14.30;99.90
39779;DHT22;25454;49.878;8.618;2023-05-09T04:09:53;14.40;99.90
39779;DHT22;25454;49.878;8.618;2023-05-09T04:14:55;14.40;99.90
39779;DHT22;25454;49.878;8.618;2023-05-09T04:19:55;14.40;99.90
39779;DHT22;25454;49.878;8.618;2023-05-09T04:24:56;14.50;99.90
39779;DHT22;25454;49.878;8.618;2023-05-09T04:29:56;14.50;99.90
39779;DHT22;25454;49.878;8.618;2023-05-09T04:34:57;14.60;99.90
39779;DHT22;25454;49.878;8.618;2023-05-09T04:39:57;14.70;99.90
39779;DHT22;25454;49.878;8.618;2023-05-09T04:44:58;14.90;99.90
39779;DHT22;25454;49.878;8.618;2023-05-09T04:49:59;15.00;99.90
39779;DHT22;25454;49.878;8.618;2023-05-09T04:55:00;15.30;99.90
39779;DHT22;25454;49.878;8.618;2023-05-09T05:00:03;15.50;99.90
39779;DHT22;25454;49.878;8.618;2023-05-09T05:05:06;15.80;99.90
39779;DHT22;25454;49.878;8.618;2023-05-09T05:10:07;16.00;99.90
39779;DHT22;25454;49.878;8.618;2023-05-09T05:15:08;16.40;99.90
39779;DHT22;25454;49.878;8.618;2023-05-09T05:20:12;16.80;99.90
39779;DHT22;25454;49.878;8.618;2023-05-09T05:25:13;17.20;99.90
39779;DHT22;25454;49.878;8.618;2023-05-09T05:30:14;17.60;99.90
39779;DHT22;25454;49.878;8.618;2023-05-09T05:35:17;18.10;99.90
39779;DHT22;25454;49.878;8.618;2023-05-09T05:40:18;18.30;99.90
39779;DHT22;25454;49.878;8.618;2023-05-09T05:45:19;18.30;99.90
39779;DHT22;25454;49.878;8.618;2023-05-09T05:50:20;18.20;99.90
39779;DHT22;25454;49.878;8.618;2023-05-09T05:55:21;18.30;99.90
39779;DHT22;25454;49.878;8.618;2023-05-09T06:00:21;18.50;99.90
39779;DHT22;25454;49.878;8.618;2023-05-09T06:05:22;18.90;99.90
39779;DHT22;25454;49.878;8.618;2023-05-09T06:10:22;19.00;99.90
39779;DHT22;25454;49.878;8.618;2023-05-09T06:15:23;18.80;99.90
39779;DHT22;25454;49.878;8.618;2023-05-09T06:20:27;18.50;99.90
39779;DHT22;25454;49.878;8.618;2023-05-09T06:25:29;18.50;99.90
39779;DHT22;25454;49.878;8.618;2023-05-09T06:30:29;18.50;99.90
39779;DHT22;25454;49.878;8.618;2023-05-09T06:35:30;18.80;99.90
39779;DHT22;25454;49.878;8.618;2023-05-09T06:40:30;19.30;99.90
39779;DHT22;25454;49.878;8.618;2023-05-09T06:45:31;19.80;99.90
39779;DHT22;25454;49.878;8.618;2023-05-09T06:50:32;20.10;99.90
39779;DHT22;25454;49.878;8.618;2023-05-09T06:55:32;20.30;99.90
39779;DHT22;25454;49.878;8.618;2023-05-09T07:00:34;20.30;99.90
39779;DHT22;25454;49.878;8.618;2023-05-09T07:05:35;20.30;99.90
39779;DHT22;25454;49.878;8.618;2023-05-09T07:10:35;20.20;99.90
39779;DHT22;25454;49.878;8.618;2023-05-09T07:15:37;20.10;99.90
39779;DHT22;25454;49.878;8.618;2023-05-09T07:20:38;20.10;99.90
39779;DHT22;25454;49.878;8.618;2023-05-09T07:25:39;20.20;99.90
39779;DHT22;25454;49.878;8.618;2023-05-09T07:30:39;20.50;99.90
39779;DHT22;25454;49.878;8.618;2023-05-09T07:35:42;20.80;99.90
39779;DHT22;25454;49.878;8.618;2023-05-09T07:40:42;20.60;99.90
39779;DHT22;25454;49.878;8.618;2023-05-09T07:45:46;20.40;99.90
39779;DHT22;25454;49.878;8.618;2023-05-09T07:50:47;20.40;99.90
39779;DHT22;25454;49.878;8.618;2023-05-09T07:55:48;20.30;99.90
39779;DHT22;25454;49.878;8.618;2023-05-09T08:00:49;20.20;99.90
39779;DHT22;25454;49.878;8.618;2023-05-09T08:05:53;20.20;99.90
39779;DHT22;25454;49.878;8.618;2023-05-09T08:10:55;20.30;99.90
39779;DHT22;25454;49.878;8.618;2023-05-09T08:15:56;20.50;99.90
39779;DHT22;25454;49.878;8.618;2023-05-09T08:20:57;20.80;99.90
39779;DHT22;25454;49.878;8.618;2023-05-09T08:25:58;20.70;99.90
39779;DHT22;25454;49.878;8.618;2023-05-09T08:30:59;20.70;99.90
39779;DHT22;25454;49.878;8.618;2023-05-09T08:36:00;21.10;99.90
39779;DHT22;25454;49.878;8.618;2023-05-09T08:41:01;21.90;99.90
39779;DHT22;25454;49.878;8.618;2023-05-09T08:46:06;22.40;99.90
39779;DHT22;25454;49.878;8.618;2023-05-09T08:51:08;22.70;99.90
39779;DHT22;25454;49.878;8.618;2023-05-09T08:56:10;22.40;99.90
39779;DHT22;25454;49.878;8.618;2023-05-09T09:01:12;21.80;99.90
39779;DHT22;25454;49.878;8.618;2023-05-09T09:06:16;21.30;99.90
39779;DHT22;25454;49.878;8.618;2023-05-09T09:11:18;21.40;99.90
39779;DHT22;25454;49.878;8.618;2023-05-09T09:16:21;21.70;99.90
39779;DHT22;25454;49.878;8.618;2023-05-09T09:21:24;22.00;99.90
39779;DHT22;25454;49.878;8.618;2023-05-09T09:26:25;22.10;99.90
39779;DHT22;25454;49.878;8.618;2023-05-09T09:31:30;22.20;99.90
39779;DHT22;25454;49.878;8.618;2023-05-09T09:36:32;22.70;99.90
39779;DHT22;25454;49.878;8.618;2023-05-09T09:41:35;22.60;99.90
39779;DHT22;25454;49.878;8.618;2023-05-09T09:51:43;22.10;99.90
39779;DHT22;25454;49.878;8.618;2023-05-09T09:56:46;22.10;99.90
39779;DHT22;25454;49.878;8.618;2023-05-09T10:02:00;22.20;99.90
39779;DHT22;25454;49.878;8.618;2023-05-09T10:07:07;22.20;99.90
39779;DHT22;25454;49.878;8.618;2023-05-09T10:12:10;22.10;99.90
39779;DHT22;25454;49.878;8.618;2023-05-09T10:17:13;22.70;99.90
39779;DHT22;25454;49.878;8.618;2023-05-09T10:22:14;23.20;99.90
39779;DHT22;25454;49.878;8.618;2023-05-09T10:27:20;23.00;99.90
39779;DHT22;25454;49.878;8.618;2023-05-09T10:32:38;23.30;99.90
39779;DHT22;25454;49.878;8.618;2023-05-09T10:37:40;23.60;99.90
39779;DHT22;25454;49.878;8.618;2023-05-09T10:42:42;24.10;99.90
39779;DHT22;25454;49.878;8.618;2023-05-09T10:47:43;23.80;99.90
39779;DHT22;25454;49.878;8.618;2023-05-09T10:58:23;24.20;99.90
39779;DHT22;25454;49.878;8.618;2023-05-09T11:03:25;24.30;99.90
39779;DHT22;25454;49.878;8.618;2023-05-09T11:08:28;25.50;99.90
39779;DHT22;25454;49.878;8.618;2023-05-09T11:13:36;26.50;99.90
39779;DHT22;25454;49.878;8.618;2023-05-09T11:18:49;25.70;99.90
39779;DHT22;25454;49.878;8.618;2023-05-09T11:23:51;25.00;99.90
39779;DHT22;25454;49.878;8.618;2023-05-09T11:28:53;25.70;99.90
39779;DHT22;25454;49.878;8.618;2023-05-09T11:34:00;25.10;99.90
39779;DHT22;25454;49.878;8.618;2023-05-09T11:39:08;24.80;99.90
39779;DHT22;25454;49.878;8.618;2023-05-09T11:44:19;24.30;99.90
39779;DHT22;25454;49.878;8.618;2023-05-09T11:49:20;23.80;99.90
39779;DHT22;25454;49.878;8.618;2023-05-09T11:54:22;23.30;99.90
39779;DHT22;25454;49.878;8.618;2023-05-09T11:59:24;23.00;99.90
39779;DHT22;25454;49.878;8.618;2023-05-09T12:04:24;23.20;99.90
39779;DHT22;25454;49.878;8.618;2023-05-09T12:09:32;24.00;99.90
39779;DHT22;25454;49.878;8.618;2023-05-09T12:14:33;24.30;99.90
39779;DHT22;25454;49.878;8.618;2023-05-09T12:19:34;23.90;99.90
39779;DHT22;25454;49.878;8.618;2023-05-09T12:24:36;23.40;99.90
39779;DHT22;25454;49.878;8.618;2023-05-09T12:29:37;23.40;99.90
39779;DHT22;25454;49.878;8.618;2023-05-09T12:34:40;24.20;99.90
39779;DHT22;25454;49.878;8.618;2023-05-09T12:39:41;24.70;99.90
39779;DHT22;25454;49.878;8.618;2023-05-09T12:44:48;24.70;99.90
39779;DHT22;25454;49.878;8.618;2023-05-09T12:49:48;24.60;99.90
39779;DHT22;25454;49.878;8.618;2023-05-09T12:54:52;24.50;99.90
39779;DHT22;25454;49.878;8.618;2023-05-09T12:59:57;24.80;99.90
39779;DHT22;25454;49.878;8.618;2023-05-09T13:15:19;25.80;99.90
39779;DHT22;25454;49.878;8.618;2023-05-09T13:20:23;26.00;99.30
39779;DHT22;25454;49.878;8.618;2023-05-09T13:25:23;26.00;98.20
39779;DHT22;25454;49.878;8.618;2023-05-09T13:30:24;26.10;97.80
39779;DHT22;25454;49.878;8.618;2023-05-09T13:35:25;26.30;97.70
39779;DHT22;25454;49.878;8.618;2023-05-09T13:40:26;26.30;96.50
39779;DHT22;25454;49.878;8.618;2023-05-09T13:45:27;26.10;97.40
39779;DHT22;25454;49.878;8.618;2023-05-09T13:50:27;25.60;98.40
39779;DHT22;25454;49.878;8.618;2023-05-09T13:55:28;25.20;99.50
39779;DHT22;25454;49.878;8.618;2023-05-09T14:00:30;24.90;98.90
39779;DHT22;25454;49.878;8.618;2023-05-09T14:05:30;24.90;99.70
39779;DHT22;25454;49.878;8.618;2023-05-09T14:10:31;25.10;99.10
39779;DHT22;25454;49.878;8.618;2023-05-09T14:15:32;25.40;99.30
39779;DHT22;25454;49.878;8.618;2023-05-09T14:20:33;25.70;98.70
39779;DHT22;25454;49.878;8.618;2023-05-09T14:25:33;25.50;98.60
39779;DHT22;25454;49.878;8.618;2023-05-09T14:30:37;25.00;99.90
39779;DHT22;25454;49.878;8.618;2023-05-09T14:35:38;24.30;99.90
39779;DHT22;25454;49.878;8.618;2023-05-09T14:40:38;23.80;99.90
39779;DHT22;25454;49.878;8.618;2023-05-09T14:45:39;23.30;99.90
39779;DHT22;25454;49.878;8.618;2023-05-09T14:50:40;22.70;99.90
39779;DHT22;25454;49.878;8.618;2023-05-09T14:55:40;22.30;99.90
39779;DHT22;25454;49.878;8.618;2023-05-09T15:00:41;21.90;99.90
39779;DHT22;25454;49.878;8.618;2023-05-09T15:05:41;21.50;99.90
39779;DHT22;25454;49.878;8.618;2023-05-09T15:10:42;21.20;99.90
39779;DHT22;25454;49.878;8.618;2023-05-09T15:15:43;21.30;99.90
39779;DHT22;25454;49.878;8.618;2023-05-09T15:20:43;21.70;99.90
39779;DHT22;25454;49.878;8.618;2023-05-09T15:25:44;22.00;99.90
39779;DHT22;25454;49.878;8.618;2023-05-09T15:30:45;22.40;99.90
39779;DHT22;25454;49.878;8.618;2023-05-09T15:35:46;22.60;99.90
39779;DHT22;25454;49.878;8.618;2023-05-09T15:40:48;22.60;99.90
39779;DHT22;25454;49.878;8.618;2023-05-09T15:45:49;22.60;99.90
39779;DHT22;25454;49.878;8.618;2023-05-09T15:50:51;22.60;99.90
39779;DHT22;25454;49.878;8.618;2023-05-09T15:55:52;22.60;99.90
39779;DHT22;25454;49.878;8.618;2023-05-09T16:00:52;22.50;99.90
39779;DHT22;25454;49.878;8.618;2023-05-09T16:05:53;22.30;99.90
39779;DHT22;25454;49.878;8.618;2023-05-09T16:10:54;22.10;99.90
39779;DHT22;25454;49.878;8.618;2023-05-09T16:15:54;21.80;99.90
39779;DHT22;25454;49.878;8.618;2023-05-09T16:20:55;21.60;99.90
39779;DHT22;25454;49.878;8.618;2023-05-09T16:25:56;21.30;99.90
39779;DHT22;25454;49.878;8.618;2023-05-09T16:30:57;21.10;99.90
39779;DHT22;25454;49.878;8.618;2023-05-09T16:35:59;21.00;99.90
39779;DHT22;25454;49.878;8.618;2023-05-09T16:41:00;20.80;99.90
39779;DHT22;25454;49.878;8.618;2023-05-09T16:46:01;20.80;99.90
39779;DHT22;25454;49.878;8.618;2023-05-09T16:51:02;20.70;99.90
39779;DHT22;25454;49.878;8.618;2023-05-09T16:56:03;20.80;99.90
39779;DHT22;25454;49.878;8.618;2023-05-09T17:01:03;20.80;99.90
39779;DHT22;25454;49.878;8.618;2023-05-09T17:06:05;20.80;99.90
39779;DHT22;25454;49.878;8.618;2023-05-09T17:11:05;20.80;99.90
39779;DHT22;25454;49.878;8.618;2023-05-09T17:16:12;20.70;99.90
39779;DHT22;25454;49.878;8.618;2023-05-09T17:21:13;20.60;99.90
39779;DHT22;25454;49.878;8.618;2023-05-09T17:26:14;20.50;99.90
39779;DHT22;25454;49.878;8.618;2023-05-09T17:31:15;20.30;99.90
39779;DHT22;25454;49.878;8.618;2023-05-09T17:36:15;20.10;99.90
39779;DHT22;25454;49.878;8.618;2023-05-09T17:41:16;18.80;99.90
39779;DHT22;25454;49.878;8.618;2023-05-09T17:46:16;17.40;99.90
39779;DHT22;25454;49.878;8.618;2023-05-09T17:51:17;16.80;99.90
39779;DHT22;25454;49.878;8.618;2023-05-09T17:56:18;16.50;99.90
39779;DHT22;25454;49.878;8.618;2023-05-09T18:01:19;15.90;99.90
39779;DHT22;25454;49.878;8.618;2023-05-09T18:06:19;15.60;99.90
39779;DHT22;25454;49.878;8.618;2023-05-09T18:11:20;15.30;99.90
39779;DHT22;25454;49.878;8.618;2023-05-09T18:16:22;15.30;99.90
39779;DHT22;25454;49.878;8.618;2023-05-09T18:21:23;15.40;99.90
39779;DHT22;25454;49.878;8.618;2023-05-09T18:26:23;15.40;99.90
39779;DHT22;25454;49.878;8.618;2023-05-09T18:31:24;15.50;99.90
39779;DHT22;25454;49.878;8.618;2023-05-09T18:36:25;15.80;99.90
39779;DHT22;25454;49.878;8.618;2023-05-09T18:41:29;15.70;99.90
39779;DHT22;25454;49.878;8.618;2023-05-09T18:46:31;15.90;99.90
39779;DHT22;25454;49.878;8.618;2023-05-09T18:51:32;16.10;99.90
39779;DHT22;25454;49.878;8.618;2023-05-09T18:56:35;16.10;99.90
39779;DHT22;25454;49.878;8.618;2023-05-09T19:01:41;16.20;99.90
39779;DHT22;25454;49.878;8.618;2023-05-09T19:06:43;16.20;99.90
39779;DHT22;25454;49.878;8.618;2023-05-09T19:11:44;16.20;99.90
39779;DHT22;25454;49.878;8.618;2023-05-09T19:16:45;16.30;99.90
39779;DHT22;25454;49.878;8.618;2023-05-09T19:21:45;16.30;99.90
39779;DHT22;25454;49.878;8.618;2023-05-09T19:26:46;16.30;99.90
39779;DHT22;25454;49.878;8.618;2023-05-09T19:31:46;16.30;99.90
39779;DHT22;25454;49.878;8.618;2023-05-09T19:36:47;16.20;99.90
39779;DHT22;25454;49.878;8.618;2023-05-09T19:41:48;16.10;99.90
39779;DHT22;25454;49.878;8.618;2023-05-09T19:46:48;16.00;99.90
39779;DHT22;25454;49.878;8.618;2023-05-09T19:51:49;16.00;99.90
39779;DHT22;25454;49.878;8.618;2023-05-09T19:56:49;15.90;99.90
39779;DHT22;25454;49.878;8.618;2023-05-09T20:01:50;15.80;99.90
39779;DHT22;25454;49.878;8.618;2023-05-09T20:06:51;15.80;99.90
39779;DHT22;25454;49.878;8.618;2023-05-09T20:11:51;15.70;99.90
39779;DHT22;25454;49.878;8.618;2023-05-09T20:16:55;15.60;99.90
39779;DHT22;25454;49.878;8.618;2023-05-09T20:21:56;15.60;99.90
39779;DHT22;25454;49.878;8.618;2023-05-09T20:26:56;15.60;99.90
39779;DHT22;25454;49.878;8.618;2023-05-09T20:31:57;15.60;99.90
39779;DHT22;25454;49.878;8.618;2023-05-09T20:36:58;15.60;99.90
39779;DHT22;25454;49.878;8.618;2023-05-09T20:41:58;15.50;99.90
39779;DHT22;25454;49.878;8.618;2023-05-09T20:47:01;15.50;99.90
39779;DHT22;25454;49.878;8.618;2023-05-09T20:52:02;15.40;99.90
39779;DHT22;25454;49.878;8.618;2023-05-09T20:57:02;15.40;99.90
39779;DHT22;25454;49.878;8.618;2023-05-09T21:02:03;15.30;99.90
39779;DHT22;25454;49.878;8.618;2023-05-09T21:07:04;15.30;99.90
39779;DHT22;25454;49.878;8.618;2023-05-09T21:12:04;15.30;99.90
39779;DHT22;25454;49.878;8.618;2023-05-09T21:17:05;15.40;99.90
39779;DHT22;25454;49.878;8.618;2023-05-09T21:22:06;15.40;99.90
39779;DHT22;25454;49.878;8.618;2023-05-09T21:27:06;15.30;99.90
39779;DHT22;25454;49.878;8.618;2023-05-09T21:32:07;15.30;99.90
39779;DHT22;25454;49.878;8.618;2023-05-09T21:37:10;15.20;99.90
39779;DHT22;25454;49.878;8.618;2023-05-09T21:42:11;15.20;99.90
39779;DHT22;25454;49.878;8.618;2023-05-09T21:47:11;15.10;99.90
39779;DHT22;25454;49.878;8.618;2023-05-09T21:52:12;15.20;99.90
39779;DHT22;25454;49.878;8.618;2023-05-09T21:57:12;15.20;99.90
39779;DHT22;25454;49.878;8.618;2023-05-09T22:02:13;15.20;99.90
39779;DHT22;25454;49.878;8.618;2023-05-09T22:07:13;15.20;99.90
39779;DHT22;25454;49.878;8.618;2023-05-09T22:12:14;15.20;99.90
39779;DHT22;25454;49.878;8.618;2023-05-09T22:17:14;15.30;99.90
39779;DHT22;25454;49.878;8.618;2023-05-09T22:22:15;15.20;99.90
39779;DHT22;25454;49.878;8.618;2023-05-09T22:27:16;15.10;99.90
39779;DHT22;25454;49.878;8.618;2023-05-09T22:32:16;15.10;99.90
39779;DHT22;25454;49.878;8.618;2023-05-09T22:37:17;15.10;99.90
39779;DHT22;25454;49.878;8.618;2023-05-09T22:42:17;15.10;99.90
39779;DHT22;25454;49.878;8.618;2023-05-09T22:47:18;15.10;99.90
39779;DHT22;25454;49.878;8.618;2023-05-09T22:52:22;15.00;99.90
39779;DHT22;25454;49.878;8.618;2023-05-09T22:57:22;14.80;99.90
39779;DHT22;25454;49.878;8.618;2023-05-09T23:02:24;14.70;99.90
39779;DHT22;25454;49.878;8.618;2023-05-09T23:07:24;14.50;99.90
39779;DHT22;25454;49.878;8.618;2023-05-09T23:12:25;14.30;99.90
39779;DHT22;25454;49.878;8.618;2023-05-09T23:17:25;14.20;99.90
39779;DHT22;25454;49.878;8.618;2023-05-09T23:22:26;14.20;99.90
39779;DHT22;25454;49.878;8.618;2023-05-09T23:27:27;14.30;99.90
39779;DHT22;25454;49.878;8.618;2023-05-09T23:32:30;14.30;99.90
39779;DHT22;25454;49.878;8.618;2023-05-09T23:37:30;14.30;99.90
39779;DHT22;25454;49.878;8.618;2023-05-09T23:42:31;14.30;99.90
39779;DHT22;25454;49.878;8.618;2023-05-09T23:47:32;14.20;99.90
39779;DHT22;25454;49.878;8.618;2023-05-09T23:52:32;14.20;99.90
39779;DHT22;25454;49.878;8.618;2023-05-09T23:57:33;14.10;99.90
